Time;durP1;ratioP1;P1;durP2;ratioP2;P2;SDS_P1;SDS_P2;PMS_P1;PMS_P2;Temp;Humidity;BMP_temperature;BMP_pressure;BME280_temperature;BME280_humidity;BME280_pressure;Samples;Min_cycle;Max_cycle;Signal;HPM_P1;HPM_P2
2022/01/16 00:01:14;;;;;;;38.63;31.15;;;8.00;88.90;;;;;;5031091;28;20038;-59
2022/01/16 00:06:25;;;;;;;40.92;32.17;;;8.00;89.10;;;;;;5031378;28;20120;-60
2022/01/16 00:08:50;;;;;;;38.80;30.83;;;8.10;89.00;;;;;;5031103;28;20068;-60
2022/01/16 00:11:16;;;;;;;38.30;29.90;;;8.00;88.80;;;;;;5031225;28;20026;-59
2022/01/16 00:13:41;;;;;;;38.92;30.02;;;8.10;88.90;;;;;;5031338;28;20041;-60
2022/01/16 00:16:09;;;;;;;37.40;30.40;;;8.10;88.80;;;;;;5031809;28;20026;-64
2022/01/16 00:18:49;;;;;;;38.45;29.52;;;8.10;88.60;;;;;;5032400;28;20034;-61
2022/01/16 00:21:25;;;;;;;38.30;30.65;;;8.10;88.70;;;;;;5033617;28;20102;-62
2022/01/16 00:23:51;;;;;;;36.53;30.00;;;8.00;88.70;;;;;;5035881;28;20022;-61
2022/01/16 00:26:18;;;;;;;36.50;29.02;;;8.00;88.80;;;;;;5035976;28;20076;-65
2022/01/16 00:28:44;;;;;;;39.60;31.48;;;8.00;88.60;;;;;;5035737;28;20022;-65
2022/01/16 00:31:10;;;;;;;40.55;31.65;;;8.00;88.60;;;;;;5035989;28;20148;-61
2022/01/16 00:33:44;;;;;;;39.38;30.92;;;8.00;88.80;;;;;;5035752;28;20454;-61
2022/01/16 00:36:11;;;;;;;39.72;31.25;;;7.90;89.00;;;;;;5035343;28;20433;-61
2022/01/16 00:38:43;;;;;;;41.53;31.77;;;7.90;89.00;;;;;;5035651;28;20367;-61
2022/01/16 00:41:10;;;;;;;;;;;7.90;89.30;;;;;;5017552;28;20033;-59
2022/01/16 00:43:35;;;;;;;38.10;28.60;;;7.90;89.20;;;;;;5035669;28;19921;-61
2022/01/16 00:46:01;;;;;;;36.58;29.00;;;7.90;89.60;;;;;;5035539;28;20382;-60
2022/01/16 00:48:26;;;;;;;39.50;30.33;;;7.90;89.70;;;;;;5035587;28;20097;-64
2022/01/16 00:50:52;;;;;;;38.45;30.95;;;7.90;89.80;;;;;;5035019;28;20049;-61
2022/01/16 00:53:17;;;;;;;42.58;32.70;;;8.00;89.60;;;;;;5035475;28;20038;-60
2022/01/16 00:55:43;;;;;;;38.85;31.13;;;8.00;89.50;;;;;;5035358;28;20020;-59
2022/01/16 00:58:10;;;;;;;39.00;32.08;;;7.90;89.50;;;;;;5035298;28;20147;-63
2022/01/16 01:00:35;;;;;;;39.70;31.10;;;7.90;89.80;;;;;;5035281;28;20185;-63
2022/01/16 01:03:01;;;;;;;39.95;31.27;;;7.90;89.90;;;;;;5035124;28;20470;-61
2022/01/16 01:05:27;;;;;;;39.92;31.67;;;7.90;90.00;;;;;;5034889;28;20342;-62
2022/01/16 01:07:54;;;;;;;35.88;28.73;;;7.90;90.00;;;;;;5034853;28;20017;-62
2022/01/16 01:10:24;;;;;;;37.95;28.15;;;8.00;90.00;;;;;;5035204;28;20517;-63
2022/01/16 01:12:54;;;;;;;35.13;27.73;;;8.00;90.30;;;;;;5034878;28;20121;-61
2022/01/16 01:15:29;;;;;;;36.80;29.70;;;8.00;90.10;;;;;;5035011;28;20022;-60
2022/01/16 01:17:54;;;;;;;37.45;29.98;;;8.10;89.80;;;;;;5034974;28;20423;-60
2022/01/16 01:20:21;;;;;;;36.00;29.38;;;8.10;89.90;;;;;;5034654;28;20497;-61
2022/01/16 01:22:51;;;;;;;33.80;27.00;;;8.10;90.00;;;;;;5034714;28;20036;-59
2022/01/16 01:25:19;;;;;;;37.13;29.58;;;8.10;90.10;;;;;;5034834;28;20022;-66
2022/01/16 01:27:46;;;;;;;35.97;27.92;;;8.10;89.70;;;;;;5034688;28;20029;-64
2022/01/16 01:30:14;;;;;;;37.47;29.40;;;8.10;90.00;;;;;;5034710;28;20086;-60
2022/01/16 01:32:42;;;;;;;37.75;28.77;;;8.10;90.00;;;;;;5033393;28;20040;-59
2022/01/16 01:35:11;;;;;;;34.38;29.02;;;8.10;90.00;;;;;;5034367;28;20066;-63
2022/01/16 01:37:37;;;;;;;37.33;29.88;;;8.10;90.00;;;;;;5034277;28;20052;-61
2022/01/16 01:40:06;;;;;;;36.63;29.80;;;8.10;89.90;;;;;;5034560;28;20082;-61
2022/01/16 01:42:35;;;;;;;36.85;29.65;;;8.00;90.00;;;;;;5032833;28;20482;-60
2022/01/16 01:51:03;;;;;;;37.05;30.23;;;8.00;90.00;;;;;;4973379;28;20494;-61
2022/01/16 01:51:05;;;;;;;32.50;27.63;;;8.00;90.10;;;;;;5033921;28;20429;-60
2022/01/16 01:53:31;;;;;;;35.55;28.10;;;8.10;90.10;;;;;;5034137;28;20092;-62
2022/01/16 01:55:57;;;;;;;39.20;30.52;;;8.10;90.10;;;;;;5034392;28;20017;-62
2022/01/16 01:58:22;;;;;;;36.90;30.55;;;8.10;90.00;;;;;;5032552;28;20041;-59
2022/01/16 02:00:48;;;;;;;36.85;29.40;;;8.10;90.20;;;;;;5034043;28;20468;-62
2022/01/16 02:05:42;;;;;;;35.78;27.73;;;8.10;90.10;;;;;;5034155;28;20030;-61
2022/01/16 02:08:08;;;;;;;36.05;27.48;;;8.20;90.20;;;;;;5033817;28;20032;-60
2022/01/16 02:10:36;;;;;;;35.97;28.95;;;8.10;90.20;;;;;;5033919;28;20025;-59
2022/01/16 02:13:06;;;;;;;36.03;29.55;;;8.10;90.10;;;;;;5033748;28;20037;-62
2022/01/16 02:31:57;;;;;;;36.85;29.40;;;8.20;90.20;;;;;;5033674;28;20030;-60
2022/01/16 02:34:32;;;;;;;38.25;29.48;;;8.20;90.30;;;;;;5033133;28;20470;-60
2022/01/16 02:37:01;;;;;;;35.08;28.23;;;8.20;90.40;;;;;;5033501;28;20021;-60
2022/01/16 02:39:31;;;;;;;39.70;29.58;;;8.20;90.40;;;;;;5033313;28;20030;-61
2022/01/16 02:41:59;;;;;;;36.47;29.45;;;8.20;90.40;;;;;;5033657;28;20041;-59
2022/01/16 02:46:58;;;;;;;37.53;30.38;;;8.20;90.60;;;;;;5033267;28;20029;-60
2022/01/16 02:49:26;;;;;;;30.08;24.67;;;8.20;90.60;;;;;;5033131;28;20104;-60
2022/01/16 02:51:59;;;;;;;32.58;27.50;;;8.30;90.60;;;;;;5033258;28;20022;-60
2022/01/16 02:54:27;;;;;;;35.65;26.83;;;8.40;90.40;;;;;;5033387;28;20025;-61
2022/01/16 02:56:53;;;;;;;35.00;27.70;;;8.30;90.30;;;;;;5033276;28;20374;-64
2022/01/16 02:59:20;;;;;;;33.10;26.88;;;8.30;90.30;;;;;;5033051;28;20463;-62
2022/01/16 03:01:46;;;;;;;32.35;26.73;;;8.40;90.40;;;;;;5032882;28;20382;-61
2022/01/16 03:04:12;;;;;;;32.47;26.50;;;8.30;90.30;;;;;;5033197;28;20026;-62
2022/01/16 03:06:38;;;;;;;34.97;27.95;;;8.40;90.40;;;;;;5033159;28;20022;-60
2022/01/16 03:09:07;;;;;;;37.65;29.88;;;8.30;90.40;;;;;;5015149;28;20103;-61
2022/01/16 03:11:35;;;;;;;32.25;26.45;;;8.30;90.40;;;;;;5033053;28;20022;-61
2022/01/16 03:14:08;;;;;;;37.45;29.35;;;8.40;90.50;;;;;;5032732;28;20044;-61
2022/01/16 03:16:34;;;;;;;35.08;29.45;;;8.40;90.50;;;;;;5032891;28;20032;-61
2022/01/16 03:21:57;;;;;;;36.30;28.35;;;8.30;90.50;;;;;;5032952;28;20049;-59
2022/01/16 03:24:27;;;;;;;38.78;30.38;;;8.30;90.50;;;;;;5032960;28;20025;-59
2022/01/16 03:26:59;;;;;;;36.75;27.95;;;8.30;90.50;;;;;;5033012;28;20470;-60
2022/01/16 03:29:26;;;;;;;;;;;8.30;90.70;;;;;;5031894;28;20029;-59
2022/01/16 03:31:52;;;;;;;33.45;25.40;;;8.20;90.70;;;;;;5032699;28;19909;-59
2022/01/16 03:34:18;;;;;;;37.30;28.52;;;8.30;91.00;;;;;;5032793;28;20429;-60
2022/01/16 03:36:44;;;;;;;35.65;28.92;;;8.30;90.80;;;;;;5032886;28;20056;-59
2022/01/16 03:39:10;;;;;;;34.53;26.15;;;8.30;90.80;;;;;;5032888;28;20484;-59
2022/01/16 03:41:37;;;;;;;35.15;28.10;;;8.30;90.90;;;;;;5032646;28;20049;-59
2022/01/16 03:44:04;;;;;;;40.65;30.75;;;8.30;90.70;;;;;;5032517;28;20018;-59
2022/01/16 03:46:41;;;;;;;38.15;27.77;;;8.30;90.80;;;;;;5032608;28;20075;-60
2022/01/16 03:49:16;;;;;;;38.80;29.00;;;8.20;90.90;;;;;;5032775;28;20377;-60
2022/01/16 03:51:44;;;;;;;39.17;28.73;;;8.20;90.90;;;;;;5032651;28;20501;-59
2022/01/16 03:54:13;;;;;;;40.67;29.40;;;8.30;90.90;;;;;;5032668;28;20446;-59
2022/01/16 03:56:39;;;;;;;39.33;30.00;;;8.30;90.90;;;;;;5034558;28;20026;-60
2022/01/16 03:59:05;;;;;;;39.55;27.83;;;8.20;90.90;;;;;;5036543;28;20040;-59
2022/01/16 04:01:31;;;;;;;37.78;27.50;;;8.30;90.90;;;;;;5035999;28;20060;-59
2022/01/16 04:03:57;;;;;;;39.80;29.45;;;8.30;90.80;;;;;;5036552;28;20022;-60
2022/01/16 04:06:23;;;;;;;36.70;28.05;;;8.30;90.80;;;;;;5036313;28;20080;-59
2022/01/16 04:08:52;;;;;;;36.03;27.85;;;8.30;90.80;;;;;;5036326;28;20026;-60
2022/01/16 04:11:18;;;;;;;37.83;29.75;;;8.30;91.10;;;;;;5036212;28;20021;-59
2022/01/16 04:14:06;;;;;;;39.72;30.13;;;8.20;90.80;;;;;;5035914;28;20525;-59
2022/01/16 04:16:33;;;;;;;38.08;27.50;;;8.30;90.90;;;;;;5036077;28;20017;-60
2022/01/16 04:18:59;;;;;;;40.80;27.05;;;8.30;90.90;;;;;;5036142;28;20028;-59
2022/01/16 04:21:26;;;;;;;39.25;29.20;;;8.30;90.80;;;;;;5035766;28;20116;-60
2022/01/16 04:23:53;;;;;;;37.60;28.30;;;8.30;90.80;;;;;;5033545;28;20018;-59
2022/01/16 04:26:20;;;;;;;36.65;26.75;;;8.30;90.80;;;;;;5030546;28;20026;-59
2022/01/16 04:28:46;;;;;;;38.97;28.45;;;8.40;90.70;;;;;;5033488;28;20025;-60
2022/01/16 04:31:13;;;;;;;33.97;25.17;;;8.30;90.60;;;;;;5033373;28;20099;-59
2022/01/16 04:33:39;;;;;;;37.83;28.05;;;8.40;90.50;;;;;;5035431;28;20022;-60
2022/01/16 04:36:05;;;;;;;41.28;30.48;;;8.30;90.40;;;;;;5035646;28;20363;-59
2022/01/16 04:38:30;;;;;;;37.75;28.30;;;8.30;90.40;;;;;;5035985;28;20079;-68
2022/01/16 04:43:51;;;;;;;41.53;30.27;;;8.30;90.60;;;;;;5035732;28;20128;-61
2022/01/16 04:46:19;;;;;;;45.35;31.30;;;8.30;90.40;;;;;;5035686;28;20415;-59
2022/01/16 04:48:45;;;;;;;43.38;30.50;;;8.20;90.40;;;;;;5035563;28;20048;-59
2022/01/16 04:51:11;;;;;;;41.42;29.70;;;8.20;90.60;;;;;;5035372;28;20037;-59
2022/01/16 04:53:38;;;;;;;40.03;29.65;;;8.10;90.70;;;;;;5035514;28;20386;-59
2022/01/16 04:56:04;;;;;;;42.80;30.80;;;8.20;90.60;;;;;;5035123;28;20505;-59
2022/01/16 04:58:30;;;;;;;43.10;28.95;;;8.10;90.70;;;;;;5035369;28;20076;-60
2022/01/16 05:00:56;;;;;;;39.95;27.98;;;8.10;90.80;;;;;;5017456;28;20025;-59
2022/01/16 05:03:27;;;;;;;47.50;30.98;;;8.20;90.80;;;;;;5035123;28;20021;-60
2022/01/16 05:05:53;;;;;;;37.17;27.27;;;8.10;90.80;;;;;;5035173;28;20017;-61
2022/01/16 05:08:18;;;;;;;40.10;28.20;;;8.20;90.80;;;;;;5034957;28;20025;-60
2022/01/16 05:10:44;;;;;;;37.95;27.73;;;8.20;90.70;;;;;;5035214;28;20021;-60
2022/01/16 05:18:38;;;;;;;45.05;30.38;;;8.20;90.50;;;;;;5034873;28;20040;-69
2022/01/16 05:21:04;;;;;;;43.95;30.83;;;8.10;90.70;;;;;;5034921;28;20034;-61
2022/01/16 05:23:30;;;;;;;46.83;32.35;;;8.20;90.70;;;;;;5034768;28;20036;-59
2022/01/16 05:25:56;;;;;;;42.30;27.58;;;8.10;90.70;;;;;;5034864;28;20471;-60
2022/01/16 05:28:22;;;;;;;42.60;29.58;;;8.10;90.80;;;;;;5034358;28;20028;-59
2022/01/16 05:30:48;;;;;;;42.97;29.73;;;8.10;90.80;;;;;;5034921;28;20022;-65
2022/01/16 05:33:13;;;;;;;47.95;32.38;;;8.10;90.80;;;;;;5034524;28;20025;-59
2022/01/16 05:35:39;;;;;;;43.67;29.10;;;8.10;90.80;;;;;;5034715;28;20100;-59
2022/01/16 05:38:05;;;;;;;43.58;30.40;;;8.10;90.90;;;;;;5034527;28;20033;-60
2022/01/16 05:40:31;;;;;;;41.35;28.15;;;8.20;90.90;;;;;;5034406;28;20029;-59
2022/01/16 05:42:58;;;;;;;40.35;27.85;;;8.10;90.90;;;;;;5034278;28;20040;-60
2022/01/16 05:45:24;;;;;;;40.10;28.85;;;8.10;90.90;;;;;;5034672;28;20092;-62
2022/01/16 05:47:50;;;;;;;43.25;29.75;;;8.10;90.90;;;;;;5034444;28;20057;-61
2022/01/16 05:50:16;;;;;;;49.30;29.88;;;8.10;90.90;;;;;;5034389;28;20041;-60
2022/01/16 05:52:42;;;;;;;45.72;28.08;;;8.20;90.90;;;;;;5016785;28;20032;-60
2022/01/16 05:55:08;;;;;;;44.05;29.02;;;8.30;91.00;;;;;;5034039;28;20030;-60
2022/01/16 05:57:34;;;;;;;42.97;29.50;;;8.30;91.00;;;;;;5033900;28;20390;-59
2022/01/16 05:59:59;;;;;;;40.67;28.05;;;8.30;90.90;;;;;;5034379;28;20550;-60
2022/01/16 06:02:26;;;;;;;46.33;29.55;;;8.40;90.90;;;;;;5032000;28;20045;-62
2022/01/16 06:04:51;;;;;;;50.42;32.88;;;8.40;90.80;;;;;;5033719;28;20482;-59
2022/01/16 06:07:18;;;;;;;43.88;28.38;;;8.40;90.80;;;;;;5032254;28;20029;-60
2022/01/16 06:09:43;;;;;;;37.55;24.50;;;8.30;90.90;;;;;;5033258;28;20029;-61
2022/01/16 06:12:09;;;;;;;35.60;24.48;;;8.40;90.90;;;;;;5033792;28;20029;-67
2022/01/16 06:14:34;;;;;;;43.00;26.00;;;8.50;90.80;;;;;;5034003;28;20080;-68
2022/01/16 06:17:00;;;;;;;44.85;30.52;;;8.50;90.80;;;;;;5033945;28;20075;-69
2022/01/16 06:19:26;;;;;;;46.47;29.95;;;8.40;90.90;;;;;;5033192;28;20026;-69
2022/01/16 06:21:51;;;;;;;43.05;28.55;;;8.40;91.00;;;;;;5033934;28;20033;-69
2022/01/16 06:24:17;;;;;;;41.08;27.40;;;8.40;91.10;;;;;;5033258;28;20500;-69
2022/01/16 06:26:43;;;;;;;41.08;27.05;;;8.40;91.00;;;;;;5033778;28;20056;-68
2022/01/16 06:29:08;;;;;;;40.50;26.77;;;8.40;91.00;;;;;;5033582;28;20079;-60
2022/01/16 06:31:34;;;;;;;36.83;24.10;;;8.40;91.00;;;;;;5033932;28;20029;-60
2022/01/16 06:34:01;;;;;;;41.13;28.58;;;8.50;91.00;;;;;;5033646;28;20406;-60
2022/01/16 06:36:28;;;;;;;38.78;26.27;;;8.60;90.90;;;;;;5033690;28;20029;-65
2022/01/16 06:38:54;;;;;;;38.85;24.23;;;8.60;90.90;;;;;;5015374;28;20079;-61
2022/01/16 06:41:20;;;;;;;47.72;28.92;;;8.60;90.90;;;;;;5033534;28;20079;-60
2022/01/16 06:43:46;;;;;;;37.00;25.63;;;8.60;90.90;;;;;;5033573;28;20029;-62
2022/01/16 06:46:11;;;;;;;40.90;26.58;;;8.60;91.00;;;;;;5033584;28;20489;-63
2022/01/16 06:48:37;;;;;;;44.13;28.52;;;8.60;91.00;;;;;;5033226;28;20029;-62
2022/01/16 06:51:03;;;;;;;46.28;30.70;;;8.60;91.10;;;;;;5033299;28;20025;-59
2022/01/16 06:53:29;;;;;;;48.38;30.92;;;8.50;91.20;;;;;;5032815;28;20028;-59
2022/01/16 06:55:55;;;;;;;40.13;27.17;;;8.40;91.40;;;;;;5033394;28;20029;-60
2022/01/16 06:58:20;;;;;;;43.33;27.67;;;8.50;91.40;;;;;;5033316;28;20017;-60
2022/01/16 07:00:47;;;;;;;48.17;29.67;;;8.40;91.50;;;;;;5032771;28;20108;-60
2022/01/16 07:03:13;;;;;;;46.78;30.05;;;8.50;91.60;;;;;;5033229;28;20064;-62
2022/01/16 07:05:43;;;;;;;45.17;29.40;;;8.40;91.70;;;;;;5032991;28;20479;-60
2022/01/16 07:08:08;;;;;;;42.33;26.40;;;8.40;91.70;;;;;;5026772;28;20367;-65
2022/01/16 07:10:34;;;;;;;36.85;25.23;;;8.50;91.50;;;;;;5020517;28;20030;-68
2022/01/16 07:13:00;;;;;;;51.28;30.88;;;8.60;91.30;;;;;;5032801;28;20042;-65
2022/01/16 07:15:25;;;;;;;51.10;31.63;;;8.60;91.60;;;;;;5032644;28;20030;-62
2022/01/16 07:17:51;;;;;;;46.47;29.60;;;8.50;91.90;;;;;;5032772;28;20029;-60
2022/01/16 07:20:17;;;;;;;46.72;29.13;;;8.40;92.00;;;;;;5032438;28;20018;-59
2022/01/16 07:22:44;;;;;;;54.72;31.80;;;8.50;92.00;;;;;;5032150;28;20045;-61
2022/01/16 07:25:11;;;;;;;48.85;30.25;;;8.40;92.10;;;;;;5032707;28;20477;-68
2022/01/16 07:27:37;;;;;;;47.10;31.38;;;8.40;92.20;;;;;;5032822;28;20023;-62
2022/01/16 07:30:03;;;;;;;43.22;28.60;;;8.40;92.40;;;;;;5033550;28;20097;-61
2022/01/16 07:32:29;;;;;;;46.85;29.45;;;8.40;92.50;;;;;;5021304;28;20029;-59
2022/01/16 07:34:55;;;;;;;46.25;30.23;;;8.40;92.60;;;;;;5023973;28;21380;-61
2022/01/16 07:37:20;;;;;;;42.90;27.33;;;8.40;92.60;;;;;;5020729;28;20096;-59
2022/01/16 07:39:46;;;;;;;46.83;30.38;;;8.40;92.70;;;;;;5014178;28;20081;-60
2022/01/16 07:42:12;;;;;;;42.33;27.42;;;8.40;92.70;;;;;;5014316;28;20109;-59
2022/01/16 07:44:37;;;;;;;49.08;29.02;;;8.40;92.80;;;;;;5014987;28;20053;-60
2022/01/16 07:47:03;;;;;;;42.15;25.90;;;8.40;92.80;;;;;;5017128;28;20072;-59
2022/01/16 07:49:29;;;;;;;42.47;28.30;;;8.50;92.90;;;;;;5031506;28;20021;-64
2022/01/16 07:51:54;;;;;;;42.83;28.00;;;8.40;92.90;;;;;;5033984;28;20048;-61
2022/01/16 07:54:20;;;;;;;39.95;24.75;;;8.50;92.90;;;;;;5035513;28;20481;-61
2022/01/16 07:56:46;;;;;;;44.33;29.15;;;8.50;93.00;;;;;;5036159;28;20033;-60
2022/01/16 07:59:11;;;;;;;41.95;26.42;;;8.50;93.00;;;;;;5034995;28;20021;-60
2022/01/16 08:01:37;;;;;;;40.92;26.70;;;8.50;93.00;;;;;;5034773;28;20402;-63
2022/01/16 08:04:03;;;;;;;45.78;28.70;;;8.50;93.10;;;;;;5030677;28;20467;-61
2022/01/16 08:06:29;;;;;;;34.85;23.98;;;8.50;93.10;;;;;;5033980;28;20021;-60
2022/01/16 08:08:56;;;;;;;40.33;27.20;;;8.60;93.40;;;;;;5034236;28;20425;-60
2022/01/16 08:11:22;;;;;;;45.55;27.83;;;8.60;93.20;;;;;;5035403;28;20029;-60
2022/01/16 08:13:47;;;;;;;48.00;29.02;;;8.60;93.20;;;;;;5035642;28;20083;-60
2022/01/16 08:16:14;;;;;;;40.67;27.02;;;8.60;93.10;;;;;;5035894;28;20033;-60
2022/01/16 08:18:40;;;;;;;55.88;29.70;;;8.50;93.30;;;;;;5028184;28;20014;-60
2022/01/16 08:21:06;;;;;;;37.28;26.00;;;8.50;93.40;;;;;;5025209;28;20036;-63
2022/01/16 08:23:31;;;;;;;44.40;27.40;;;8.60;93.40;;;;;;5035091;28;20390;-60
2022/01/16 08:25:57;;;;;;;39.03;24.15;;;8.60;93.40;;;;;;5035085;28;20470;-60
2022/01/16 08:28:23;;;;;;;40.63;25.65;;;8.70;93.60;;;;;;5035701;28;20092;-60
2022/01/16 08:30:49;;;;;;;41.70;27.73;;;8.70;93.40;;;;;;5035165;28;20057;-60
2022/01/16 08:33:14;;;;;;;45.65;27.83;;;8.80;93.40;;;;;;5035713;28;20106;-60
2022/01/16 08:35:40;;;;;;;42.60;26.52;;;8.70;93.20;;;;;;5034601;28;20032;-61
2022/01/16 08:38:05;;;;;;;44.08;29.08;;;8.70;93.40;;;;;;5035477;28;20025;-60
2022/01/16 08:40:31;;;;;;;43.67;27.23;;;8.80;93.20;;;;;;5035490;28;20033;-67
2022/01/16 08:42:57;;;;;;;45.92;29.50;;;8.70;93.20;;;;;;5034877;28;20037;-63
2022/01/16 08:45:22;;;;;;;51.63;32.45;;;8.70;93.30;;;;;;5035615;28;20071;-66
2022/01/16 08:47:48;;;;;;;41.78;27.25;;;8.60;93.20;;;;;;5035455;28;20430;-62
2022/01/16 08:50:15;;;;;;;43.67;29.10;;;8.60;93.40;;;;;;5034334;28;20036;-61
2022/01/16 08:52:41;;;;;;;40.03;26.60;;;8.60;93.50;;;;;;5034971;28;20385;-61
2022/01/16 08:55:09;;;;;;;43.50;28.58;;;8.60;93.50;;;;;;5035149;28;20029;-64
2022/01/16 08:57:35;;;;;;;40.72;28.52;;;8.60;93.60;;;;;;5034947;28;20466;-61
2022/01/16 09:00:02;;;;;;;39.53;24.67;;;8.70;93.50;;;;;;5035136;28;20033;-61
2022/01/16 09:02:28;;;;;;;42.33;26.02;;;8.70;93.50;;;;;;5035179;28;20129;-66
2022/01/16 09:04:54;;;;;;;43.50;28.42;;;8.70;93.60;;;;;;5035132;28;20100;-61
2022/01/16 09:07:20;;;;;;;43.80;28.48;;;8.70;93.40;;;;;;5034652;28;20476;-61
2022/01/16 09:09:45;;;;;;;45.50;28.80;;;8.70;93.40;;;;;;5035293;28;20037;-65
2022/01/16 09:12:11;;;;;;;36.78;23.63;;;8.70;93.40;;;;;;5034899;28;20172;-63
2022/01/16 09:14:37;;;;;;;26.15;16.60;;;8.70;93.60;;;;;;5035106;28;20038;-64
2022/01/16 09:17:02;;;;;;;27.95;15.18;;;9.00;94.40;;;;;;5034969;28;20030;-60
2022/01/16 09:19:29;;;;;;;43.97;30.38;;;9.30;94.90;;;;;;5030817;28;20481;-60
2022/01/16 09:21:55;;;;;;;37.45;24.77;;;9.50;92.50;;;;;;5023623;28;20048;-59
2022/01/16 09:24:21;;;;;;;44.60;29.63;;;9.40;92.50;;;;;;5025213;28;20088;-62
2022/01/16 09:26:46;;;;;;;45.60;28.48;;;9.40;91.90;;;;;;5022049;28;20120;-61
2022/01/16 09:29:12;;;;;;;29.73;19.58;;;9.30;91.80;;;;;;5018642;28;20026;-66
2022/01/16 09:31:37;;;;;;;32.63;21.98;;;9.20;93.30;;;;;;5031623;28;20029;-64
2022/01/16 09:34:04;;;;;;;36.28;19.23;;;9.30;93.20;;;;;;5033834;28;20026;-60
2022/01/16 09:36:29;;;;;;;37.13;24.70;;;9.40;93.60;;;;;;5034277;28;20037;-64
2022/01/16 09:38:55;;;;;;;31.58;20.30;;;9.40;92.80;;;;;;5024402;28;20462;-66
2022/01/16 09:41:20;;;;;;;28.63;19.38;;;9.50;93.30;;;;;;5034199;28;20045;-60
2022/01/16 09:43:46;;;;;;;25.63;17.45;;;9.60;93.20;;;;;;5023724;28;20036;-60
2022/01/16 09:46:12;;;;;;;29.40;18.00;;;9.70;93.30;;;;;;5022334;28;20088;-60
2022/01/16 09:48:38;;;;;;;26.00;17.05;;;9.80;93.30;;;;;;5023633;28;20025;-60
2022/01/16 09:51:04;;;;;;;23.58;16.08;;;9.80;92.90;;;;;;5023354;28;20021;-64
2022/01/16 09:53:30;;;;;;;29.38;16.52;;;9.90;92.80;;;;;;5019851;28;20037;-66
2022/01/16 09:55:55;;;;;;;25.50;15.43;;;10.20;92.60;;;;;;5023712;28;20072;-61
2022/01/16 09:58:21;;;;;;;25.92;15.55;;;10.30;92.00;;;;;;5023608;28;20025;-59
2022/01/16 10:00:48;;;;;;;23.65;16.50;;;10.40;91.90;;;;;;5023010;28;20044;-61
2022/01/16 10:03:34;;;;;;;21.13;15.40;;;10.30;92.30;;;;;;5020173;28;20091;-60
2022/01/16 10:06:10;;;;;;;20.52;15.45;;;10.40;91.80;;;;;;5027269;28;20018;-59
2022/01/16 10:08:37;;;;;;;20.90;14.30;;;10.40;91.90;;;;;;5023364;28;20399;-61
2022/01/16 10:11:28;;;;;;;21.85;16.30;;;10.50;91.80;;;;;;5022010;28;20016;-59
2022/01/16 10:13:59;;;;;;;23.42;16.27;;;10.50;91.70;;;;;;5014854;28;20065;-60
2022/01/16 10:16:30;;;;;;;28.98;19.58;;;10.70;91.50;;;;;;5021151;28;20045;-59
2022/01/16 10:18:55;;;;;;;30.38;17.85;;;10.60;91.00;;;;;;5017775;28;20034;-59
2022/01/16 10:21:39;;;;;;;26.38;16.17;;;10.60;91.00;;;;;;5019106;28;20125;-62
2022/01/16 10:24:29;;;;;;;23.80;15.80;;;10.60;91.50;;;;;;5023190;28;20029;-61
2022/01/16 10:27:10;;;;;;;26.52;17.77;;;10.80;90.90;;;;;;5028236;28;20036;-67
2022/01/16 10:29:37;;;;;;;27.03;17.27;;;10.70;91.10;;;;;;5024321;28;20079;-61
2022/01/16 10:32:13;;;;;;;25.98;16.33;;;10.70;91.20;;;;;;5023218;28;20026;-63
2022/01/16 10:34:40;;;;;;;28.48;17.10;;;10.70;91.30;;;;;;5030735;28;20045;-61
2022/01/16 10:37:21;;;;;;;28.23;17.83;;;10.70;91.20;;;;;;5029344;28;20033;-60
2022/01/16 10:40:06;;;;;;;30.90;20.05;;;10.70;91.20;;;;;;5033463;28;20025;-62
2022/01/16 10:42:33;;;;;;;36.15;23.23;;;10.70;91.00;;;;;;5018128;28;20440;-80
2022/01/16 10:45:09;;;;;;;32.05;21.58;;;10.60;90.50;;;;;;5010363;28;20107;-62
2022/01/16 10:47:43;;;;;;;26.52;19.33;;;10.80;90.20;;;;;;5026168;28;20048;-61
2022/01/16 10:50:09;;;;;;;30.58;19.77;;;11.20;89.20;;;;;;5025079;28;20036;-65
2022/01/16 10:52:58;;;;;;;25.83;18.08;;;11.40;88.90;;;;;;5019356;28;20033;-62
2022/01/16 10:55:43;;;;;;;24.40;17.20;;;11.70;87.80;;;;;;5016998;28;20013;-59
2022/01/16 10:58:18;;;;;;;32.92;19.40;;;11.80;87.90;;;;;;5018251;28;20036;-59
2022/01/16 11:00:54;;;;;;;23.02;16.98;;;11.90;87.20;;;;;;5023564;28;20021;-59
2022/01/16 11:03:21;;;;;;;25.50;20.02;;;12.00;87.00;;;;;;5020151;28;20037;-60
2022/01/16 11:05:49;;;;;;;24.42;18.70;;;11.70;86.40;;;;;;5018405;28;20083;-64
2022/01/16 11:08:17;;;;;;;22.08;17.17;;;11.80;86.10;;;;;;5022118;28;20022;-61
2022/01/16 11:10:48;;;;;;;26.50;17.75;;;11.90;85.80;;;;;;5009085;28;20030;-60
2022/01/16 11:13:19;;;;;;;24.00;17.47;;;12.10;85.40;;;;;;5020491;28;20113;-61
2022/01/16 11:15:51;;;;;;;25.05;15.20;;;12.10;84.80;;;;;;5023584;28;20053;-58
2022/01/16 11:18:19;;;;;;;23.20;16.98;;;12.20;85.00;;;;;;5020346;28;20091;-60
2022/01/16 11:20:55;;;;;;;27.45;17.02;;;12.30;84.20;;;;;;5008331;28;20030;-60
2022/01/16 11:25:54;;;;;;;24.33;18.77;;;12.20;83.20;;;;;;5022915;28;20386;-60
2022/01/16 11:28:20;;;;;;;21.88;17.77;;;12.10;83.80;;;;;;5022838;28;20471;-60
2022/01/16 11:30:51;;;;;;;22.55;16.55;;;12.00;83.20;;;;;;5004613;28;20041;-60
2022/01/16 11:33:17;;;;;;;26.42;19.55;;;12.00;84.10;;;;;;5017848;28;20056;-60
2022/01/16 11:35:56;;;;;;;22.10;15.57;;;12.00;83.50;;;;;;5024468;28;20108;-61
2022/01/16 11:38:27;;;;;;;18.15;14.23;;;12.00;84.60;;;;;;5020306;28;20025;-62
2022/01/16 11:40:53;;;;;;;18.67;13.57;;;12.20;84.30;;;;;;5024348;28;20030;-60
2022/01/16 11:43:29;;;;;;;19.45;13.48;;;12.40;83.40;;;;;;5031733;28;20041;-65
2022/01/16 11:46:15;;;;;;;18.45;13.05;;;12.60;83.00;;;;;;5032559;28;20030;-61
2022/01/16 11:48:47;;;;;;;14.73;11.80;;;12.70;82.60;;;;;;5005627;28;20038;-61
2022/01/16 11:51:35;;;;;;;14.38;11.77;;;12.80;82.30;;;;;;5028737;28;20030;-61
2022/01/16 11:54:21;;;;;;;13.10;11.57;;;12.80;82.00;;;;;;5032155;28;20509;-61
2022/01/16 11:56:49;;;;;;;14.00;11.50;;;12.90;81.80;;;;;;5032483;28;20029;-66
2022/01/16 11:59:24;;;;;;;13.38;11.45;;;12.90;81.70;;;;;;5016733;28;20049;-62
2022/01/16 12:02:03;;;;;;;14.63;11.80;;;13.00;81.50;;;;;;5018000;28;20372;-61
2022/01/16 12:04:29;;;;;;;15.23;11.27;;;13.00;81.20;;;;;;5019683;28;20025;-61
2022/01/16 12:07:19;;;;;;;17.67;12.50;;;13.00;81.30;;;;;;5018224;28;20363;-61
2022/01/16 12:12:13;;;;;;;20.80;12.52;;;13.10;81.20;;;;;;5019556;28;20510;-61
2022/01/16 12:14:56;;;;;;;14.07;11.65;;;13.10;80.90;;;;;;5022281;28;20042;-60
2022/01/16 12:17:48;;;;;;;16.20;12.95;;;13.20;80.80;;;;;;5023442;28;20026;-61
2022/01/16 12:20:13;;;;;;;22.15;15.77;;;13.30;80.50;;;;;;5023930;28;20025;-64
2022/01/16 12:22:43;;;;;;;17.17;13.43;;;13.20;79.50;;;;;;5031590;28;20034;-66
2022/01/16 12:25:25;;;;;;;21.50;16.92;;;13.40;78.60;;;;;;5035980;28;20022;-61
2022/01/16 12:28:00;;;;;;;24.00;18.55;;;13.40;78.40;;;;;;5027367;28;20025;-61
2022/01/16 12:30:33;;;;;;;21.08;13.80;;;13.10;79.20;;;;;;5028140;28;20504;-61
2022/01/16 12:33:03;;;;;;;19.00;13.75;;;12.90;80.50;;;;;;5030840;28;20021;-62
2022/01/16 12:35:41;;;;;;;25.25;16.27;;;13.00;80.90;;;;;;5035579;28;20026;-61
2022/01/16 12:38:12;;;;;;;17.15;13.65;;;13.00;80.00;;;;;;5022958;28;20079;-61
2022/01/16 12:40:39;;;;;;;21.33;16.02;;;12.90;80.90;;;;;;5035241;28;20136;-60
2022/01/16 12:43:13;;;;;;;16.58;10.73;;;12.90;81.20;;;;;;5034834;28;20112;-63
2022/01/16 12:45:40;;;;;;;18.60;15.38;;;12.80;82.90;;;;;;5035336;28;20474;-60
2022/01/16 12:48:06;;;;;;;17.77;12.18;;;12.70;81.90;;;;;;5035186;28;20026;-62
2022/01/16 12:50:33;;;;;;;18.52;13.65;;;12.70;82.30;;;;;;5035534;28;20108;-65
2022/01/16 12:52:59;;;;;;;16.10;11.13;;;12.80;82.30;;;;;;5034814;28;20033;-60
2022/01/16 12:55:33;;;;;;;14.05;10.73;;;12.70;83.30;;;;;;5035301;28;20028;-62
2022/01/16 12:58:22;;;;;;;17.52;12.32;;;12.80;82.50;;;;;;5034240;28;20072;-62
2022/01/16 13:00:58;;;;;;;15.35;11.95;;;13.00;82.80;;;;;;5034556;28;20113;-60
2022/01/16 13:03:28;;;;;;;30.58;23.52;;;12.90;83.10;;;;;;5035081;28;20025;-63
2022/01/16 13:06:16;;;;;;;34.03;25.60;;;12.40;82.40;;;;;;5033947;28;20033;-63
2022/01/16 13:09:00;;;;;;;34.03;25.90;;;12.20;82.60;;;;;;5034491;28;20018;-63
2022/01/16 13:11:39;;;;;;;34.65;24.73;;;12.00;83.50;;;;;;5042641;28;20100;-65
2022/01/16 13:14:11;;;;;;;32.47;25.00;;;11.80;84.10;;;;;;5033221;28;20094;-60
2022/01/16 13:16:47;;;;;;;;;;;11.70;84.70;;;;;;5024275;28;20028;-62
2022/01/16 13:19:17;;;;;;;26.95;18.60;;;11.60;85.10;;;;;;5047683;28;19909;-60
2022/01/16 13:22:11;;;;;;;18.15;13.23;;;11.50;86.80;;;;;;5031891;28;20026;-67
2022/01/16 13:24:41;;;;;;;22.80;16.48;;;11.60;88.80;;;;;;5033201;28;20033;-63
2022/01/16 13:27:10;;;;;;;32.63;23.92;;;11.60;88.10;;;;;;5034041;28;20052;-63